Time;durP1;ratioP1;P1;durP2;ratioP2;P2;SDS_P1;SDS_P2;PMS_P1;PMS_P2;Temp;Humidity;BMP_temperature;BMP_pressure;BME280_temperature;BME280_humidity;BME280_pressure;Samples;Min_cycle;Max_cycle;Signal;HPM_P1;HPM_P2
2022/01/21 00:01:33;;;;;;;5.97;1.40;;;;;;;;;;4896019;29;20193;-76
2022/01/21 00:03:59;;;;;;;6.60;1.33;;;;;;;;;;4895785;29;20186;-75
2022/01/21 00:06:25;;;;;;;2.00;1.27;;;;;;;;;;4895822;29;20177;-75
2022/01/21 00:08:51;;;;;;;2.90;1.30;;;;;;;;;;4895597;29;20286;-75
2022/01/21 00:11:17;;;;;;;4.17;1.33;;;;;;;;;;4895840;29;20189;-76
2022/01/21 00:13:44;;;;;;;7.23;1.47;;;;;;;;;;4896889;29;20202;-76
2022/01/21 00:16:12;;;;;;;5.03;1.50;;;;;;;;;;4896918;29;20186;-76
2022/01/21 00:18:39;;;;;;;3.20;1.20;;;;;;;;;;4895638;29;20203;-76
2022/01/21 00:32:05;;;;;;;9.17;1.47;;;;;;;;;;4896021;29;20278;-75
2022/01/21 00:34:31;;;;;;;6.33;2.03;;;;;;;;;;4896548;29;20243;-76
2022/01/21 00:36:57;;;;;;;3.70;1.43;;;;;;;;;;4895781;29;20238;-76
2022/01/21 00:39:26;;;;;;;3.00;1.13;;;;;;;;;;4895382;29;20313;-76
2022/01/21 00:42:07;;;;;;;4.97;1.50;;;;;;;;;;4895568;29;20218;-76
2022/01/21 00:44:33;;;;;;;3.10;1.40;;;;;;;;;;4895648;29;20179;-76
2022/01/21 00:47:00;;;;;;;5.73;1.30;;;;;;;;;;4895544;29;20189;-76
2022/01/21 00:49:26;;;;;;;6.03;1.50;;;;;;;;;;4895393;29;20218;-75
2022/01/21 00:51:52;;;;;;;6.83;1.57;;;;;;;;;;4895445;29;20179;-76
2022/01/21 00:54:19;;;;;;;4.93;1.40;;;;;;;;;;4895176;29;20205;-76
2022/01/21 00:56:45;;;;;;;6.23;1.60;;;;;;;;;;4895804;29;20201;-76
2022/01/21 00:59:11;;;;;;;4.20;1.30;;;;;;;;;;4895460;29;20214;-76
2022/01/21 01:01:37;;;;;;;4.30;1.30;;;;;;;;;;4896659;29;20186;-76
2022/01/21 01:04:03;;;;;;;3.30;1.17;;;;;;;;;;4895296;29;20218;-76
2022/01/21 01:06:29;;;;;;;4.47;1.47;;;;;;;;;;4895291;29;20785;-76
2022/01/21 01:08:56;;;;;;;6.40;1.53;;;;;;;;;;4895235;29;20694;-76
2022/01/21 01:11:32;;;;;;;3.43;1.47;;;;;;;;;;4898566;29;20254;-76
2022/01/21 01:22:15;;;;;;;4.40;1.57;;;;;;;;;;4899036;29;20206;-75
2022/01/21 01:29:56;;;;;;;4.13;1.20;;;;;;;;;;4899646;29;20269;-76
2022/01/21 01:32:23;;;;;;;4.10;1.30;;;;;;;;;;4898263;29;20204;-76
2022/01/21 01:34:49;;;;;;;5.60;1.50;;;;;;;;;;4898248;29;20183;-75
2022/01/21 01:37:30;;;;;;;2.73;1.17;;;;;;;;;;4898533;29;20183;-76
2022/01/21 01:40:16;;;;;;;3.83;1.27;;;;;;;;;;4900172;29;20217;-76
2022/01/21 01:50:43;;;;;;;4.87;1.30;;;;;;;;;;4898488;29;20201;-76
2022/01/21 01:53:09;;;;;;;3.20;1.50;;;;;;;;;;4897856;29;20249;-76
2022/01/21 01:55:36;;;;;;;7.93;1.60;;;;;;;;;;4898008;29;20183;-76
2022/01/21 01:58:02;;;;;;;4.83;1.20;;;;;;;;;;4898042;29;20186;-76
2022/01/21 02:00:28;;;;;;;5.33;1.27;;;;;;;;;;4897719;29;20214;-76
2022/01/21 02:02:54;;;;;;;4.23;1.40;;;;;;;;;;4898049;29;20185;-76
2022/01/21 02:05:20;;;;;;;4.17;1.40;;;;;;;;;;4897696;29;20205;-76
2022/01/21 02:07:46;;;;;;;5.53;1.63;;;;;;;;;;4897919;29;20643;-76
2022/01/21 02:10:12;;;;;;;5.90;1.33;;;;;;;;;;4897824;29;20293;-75
2022/01/21 02:12:41;;;;;;;5.90;1.53;;;;;;;;;;4897787;29;20647;-76
2022/01/21 02:15:09;;;;;;;4.23;1.57;;;;;;;;;;4897453;29;20186;-76
2022/01/21 02:22:48;;;;;;;5.43;1.50;;;;;;;;;;4898254;29;20190;-76
2022/01/21 02:25:18;;;;;;;5.87;1.50;;;;;;;;;;4897537;29;20226;-76
2022/01/21 02:27:45;;;;;;;9.27;1.93;;;;;;;;;;4897827;29;20186;-76
2022/01/21 02:30:18;;;;;;;4.37;1.37;;;;;;;;;;4897365;29;20363;-77
2022/01/21 02:32:49;;;;;;;4.60;1.43;;;;;;;;;;4897115;29;20182;-75
2022/01/21 02:35:16;;;;;;;5.27;1.30;;;;;;;;;;4897241;29;20194;-76
2022/01/21 02:37:42;;;;;;;4.33;1.33;;;;;;;;;;4897364;29;20193;-76
2022/01/21 02:40:09;;;;;;;4.47;1.37;;;;;;;;;;4896906;29;20682;-76
2022/01/21 02:42:35;;;;;;;5.10;1.20;;;;;;;;;;4898329;29;20262;-76
2022/01/21 02:45:02;;;;;;;7.97;1.50;;;;;;;;;;4896925;29;20250;-76
2022/01/21 02:47:28;;;;;;;6.80;1.53;;;;;;;;;;4897007;29;20282;-76
2022/01/21 02:49:54;;;;;;;5.57;2.03;;;;;;;;;;4897076;29;20242;-76
2022/01/21 02:52:24;;;;;;;4.63;1.37;;;;;;;;;;4896916;29;20194;-76
2022/01/21 02:54:50;;;;;;;6.10;1.40;;;;;;;;;;4897246;29;20191;-76
2022/01/21 02:57:16;;;;;;;3.03;1.43;;;;;;;;;;4896840;29;20198;-75
2022/01/21 02:59:42;;;;;;;6.57;1.40;;;;;;;;;;4896718;29;20278;-76
2022/01/21 03:02:08;;;;;;;5.97;1.43;;;;;;;;;;4896786;29;20183;-76
2022/01/21 03:04:52;;;;;;;7.43;1.43;;;;;;;;;;4896754;29;20186;-76
2022/01/21 03:07:18;;;;;;;9.07;1.43;;;;;;;;;;4897144;29;20175;-76
2022/01/21 03:09:44;;;;;;;3.70;1.20;;;;;;;;;;4896633;29;20246;-76
2022/01/21 03:12:10;;;;;;;6.43;1.30;;;;;;;;;;4896731;29;20185;-77
2022/01/21 03:14:36;;;;;;;3.73;1.83;;;;;;;;;;4896544;29;20238;-76
2022/01/21 03:17:02;;;;;;;1.97;1.10;;;;;;;;;;4896504;29;20187;-76
2022/01/21 03:19:28;;;;;;;3.47;1.17;;;;;;;;;;4896514;29;20210;-76
2022/01/21 03:21:55;;;;;;;6.60;1.20;;;;;;;;;;4896495;29;20227;-77
2022/01/21 03:24:21;;;;;;;5.07;1.33;;;;;;;;;;4896370;29;20631;-76
2022/01/21 03:26:47;;;;;;;4.50;1.30;;;;;;;;;;4896587;29;20646;-76
2022/01/21 03:29:13;;;;;;;6.73;1.50;;;;;;;;;;4925737;23;20268;-77
2022/01/21 03:31:39;;;;;;;5.80;1.47;;;;;;;;;;4902659;29;20277;-77
2022/01/21 03:34:05;;;;;;;5.77;1.20;;;;;;;;;;4902064;29;20177;-77
2022/01/21 03:36:31;;;;;;;4.57;1.30;;;;;;;;;;4902561;29;20205;-77
2022/01/21 03:38:57;;;;;;;4.97;1.87;;;;;;;;;;4902276;29;20634;-77
2022/01/21 03:41:23;;;;;;;4.77;1.33;;;;;;;;;;4918084;29;20217;-77
2022/01/21 03:43:49;;;;;;;4.63;1.33;;;;;;;;;;4918007;29;20288;-77
2022/01/21 03:46:16;;;;;;;5.50;1.37;;;;;;;;;;4918160;29;20225;-77
2022/01/21 03:48:46;;;;;;;3.33;1.43;;;;;;;;;;4902488;29;20188;-77
2022/01/21 03:51:12;;;;;;;6.67;1.60;;;;;;;;;;4935051;29;20181;-77
2022/01/21 03:53:38;;;;;;;5.83;1.67;;;;;;;;;;4917925;29;20173;-77
2022/01/21 03:56:04;;;;;;;5.67;1.50;;;;;;;;;;4917997;29;20173;-77
2022/01/21 03:58:30;;;;;;;5.80;1.67;;;;;;;;;;4918073;29;20240;-77
2022/01/21 04:00:56;;;;;;;6.60;1.40;;;;;;;;;;4917785;29;20217;-77
2022/01/21 04:03:23;;;;;;;2.23;1.30;;;;;;;;;;4917897;29;20200;-77
2022/01/21 04:05:49;;;;;;;5.23;1.43;;;;;;;;;;4917817;29;20174;-77
2022/01/21 04:08:15;;;;;;;5.47;1.20;;;;;;;;;;4902089;29;20185;-77
2022/01/21 04:10:42;;;;;;;8.13;1.63;;;;;;;;;;4902158;29;20201;-77
2022/01/21 04:13:14;;;;;;;3.37;1.40;;;;;;;;;;4917781;29;20182;-77
2022/01/21 04:15:41;;;;;;;5.13;1.33;;;;;;;;;;4902922;29;20188;-77
2022/01/21 04:18:07;;;;;;;7.13;1.50;;;;;;;;;;4917678;29;20240;-77
2022/01/21 04:20:33;;;;;;;6.13;1.50;;;;;;;;;;4902004;29;20228;-77
2022/01/21 04:22:59;;;;;;;9.20;2.13;;;;;;;;;;4902318;29;20553;-77
2022/01/21 04:25:25;;;;;;;2.80;1.30;;;;;;;;;;4902153;29;20228;-77
2022/01/21 04:27:51;;;;;;;5.33;1.40;;;;;;;;;;4902273;29;20221;-77
2022/01/21 04:30:17;;;;;;;3.73;1.43;;;;;;;;;;4901929;29;20225;-77
2022/01/21 04:32:43;;;;;;;4.80;1.40;;;;;;;;;;4917575;29;20182;-77
2022/01/21 04:35:10;;;;;;;5.17;1.30;;;;;;;;;;4901848;29;20185;-77
2022/01/21 04:37:39;;;;;;;5.63;1.50;;;;;;;;;;4917581;29;20214;-77
2022/01/21 04:40:10;;;;;;;5.50;1.30;;;;;;;;;;4902432;29;20221;-77
2022/01/21 04:48:07;;;;;;;6.30;1.40;;;;;;;;;;4938756;29;20309;-77
2022/01/21 04:50:40;;;;;;;7.17;1.60;;;;;;;;;;4921309;29;20209;-77
2022/01/21 04:53:07;;;;;;;4.47;1.10;;;;;;;;;;4921190;29;20188;-77
2022/01/21 04:55:34;;;;;;;3.83;1.70;;;;;;;;;;4921059;29;20178;-77
2022/01/21 04:58:00;;;;;;;4.27;1.53;;;;;;;;;;4905435;29;20340;-77
2022/01/21 05:00:26;;;;;;;7.07;1.70;;;;;;;;;;4905057;29;20289;-77
2022/01/21 05:02:52;;;;;;;5.43;1.47;;;;;;;;;;4921177;29;20192;-77
2022/01/21 05:05:18;;;;;;;9.20;1.43;;;;;;;;;;4905193;29;20190;-77
2022/01/21 05:07:44;;;;;;;2.07;1.13;;;;;;;;;;4905148;29;20660;-77
2022/01/21 05:10:11;;;;;;;5.73;1.40;;;;;;;;;;4905160;29;20202;-77
2022/01/21 05:12:37;;;;;;;7.90;1.90;;;;;;;;;;4920709;29;20195;-77
2022/01/21 05:15:20;;;;;;;4.87;1.37;;;;;;;;;;4920492;29;20272;-77
2022/01/21 05:17:49;;;;;;;2.70;1.40;;;;;;;;;;4920769;29;20189;-77
2022/01/21 05:20:16;;;;;;;6.63;1.60;;;;;;;;;;4920512;29;20217;-77
2022/01/21 05:22:42;;;;;;;6.83;1.60;;;;;;;;;;4920576;29;20264;-77
2022/01/21 05:25:09;;;;;;;6.63;2.03;;;;;;;;;;4904816;29;20299;-77
2022/01/21 05:27:35;;;;;;;8.73;1.83;;;;;;;;;;4920743;29;20178;-77
2022/01/21 05:30:01;;;;;;;9.07;2.00;;;;;;;;;;4904516;29;20306;-77
2022/01/21 05:32:27;;;;;;;3.70;1.90;;;;;;;;;;4904540;29;20270;-77
2022/01/21 05:34:53;;;;;;;10.27;2.57;;;;;;;;;;4904765;29;20185;-77
2022/01/21 05:37:19;;;;;;;9.63;2.60;;;;;;;;;;4920229;29;20188;-77
2022/01/21 05:39:46;;;;;;;9.07;2.70;;;;;;;;;;4904406;29;20213;-77
2022/01/21 05:42:12;;;;;;;12.97;2.50;;;;;;;;;;4904518;29;20208;-77
2022/01/21 05:47:05;;;;;;;5.67;2.13;;;;;;;;;;4920546;29;20557;-77
2022/01/21 05:49:32;;;;;;;8.60;1.97;;;;;;;;;;4904432;29;20218;-77
2022/01/21 05:52:07;;;;;;;6.23;2.10;;;;;;;;;;4920077;29;20186;-77
2022/01/21 05:54:33;;;;;;;7.07;2.03;;;;;;;;;;4905275;29;20217;-77
2022/01/21 05:57:01;;;;;;;6.67;1.60;;;;;;;;;;4919923;29;20181;-77
2022/01/21 05:59:27;;;;;;;4.23;1.60;;;;;;;;;;4919915;29;20707;-77
2022/01/21 06:01:53;;;;;;;6.73;1.93;;;;;;;;;;4904378;29;20186;-76
2022/01/21 06:04:19;;;;;;;6.60;1.87;;;;;;;;;;4919593;29;20637;-77
2022/01/21 06:06:45;;;;;;;4.70;1.50;;;;;;;;;;4919757;29;20192;-77
2022/01/21 06:09:11;;;;;;;7.17;2.17;;;;;;;;;;4919585;29;20205;-78
2022/01/21 06:11:38;;;;;;;7.50;1.60;;;;;;;;;;4919917;29;20298;-78
2022/01/21 06:14:04;;;;;;;5.07;1.67;;;;;;;;;;4904204;29;20198;-78
2022/01/21 06:16:33;;;;;;;8.33;1.90;;;;;;;;;;4903900;29;20213;-78
2022/01/21 06:19:01;;;;;;;6.13;1.90;;;;;;;;;;4904630;29;20241;-78
2022/01/21 06:21:27;;;;;;;6.30;1.90;;;;;;;;;;4919460;29;20181;-78
2022/01/21 06:23:53;;;;;;;7.30;1.70;;;;;;;;;;4903941;29;20236;-78
2022/01/21 06:26:19;;;;;;;6.27;1.70;;;;;;;;;;4903752;29;20592;-78
2022/01/21 06:28:45;;;;;;;10.70;2.57;;;;;;;;;;4919878;29;20174;-78
2022/01/21 06:31:11;;;;;;;6.60;1.93;;;;;;;;;;4903675;29;20275;-78
2022/01/21 06:33:37;;;;;;;5.73;2.00;;;;;;;;;;4903336;29;20279;-78
2022/01/21 06:36:03;;;;;;;9.17;2.80;;;;;;;;;;4903544;29;20732;-78
2022/01/21 06:38:29;;;;;;;4.73;2.50;;;;;;;;;;4919421;29;20559;-78
2022/01/21 06:40:55;;;;;;;7.13;3.37;;;;;;;;;;4903643;29;20216;-78
2022/01/21 06:43:21;;;;;;;7.17;2.67;;;;;;;;;;4903423;29;20189;-78
2022/01/21 06:45:48;;;;;;;5.70;1.90;;;;;;;;;;4919179;29;20181;-78
2022/01/21 06:48:14;;;;;;;6.37;2.73;;;;;;;;;;4919157;29;20240;-78
2022/01/21 06:50:41;;;;;;;7.67;3.43;;;;;;;;;;4919360;29;20296;-79
2022/01/21 06:53:07;;;;;;;6.50;2.00;;;;;;;;;;4903429;29;20192;-78
2022/01/21 06:55:34;;;;;;;7.23;2.20;;;;;;;;;;4918940;29;20185;-78
2022/01/21 06:58:00;;;;;;;4.80;2.40;;;;;;;;;;4919127;29;20186;-78
2022/01/21 07:00:26;;;;;;;7.97;2.63;;;;;;;;;;4918731;29;20205;-78
2022/01/21 07:02:53;;;;;;;8.07;2.67;;;;;;;;;;4903263;29;20185;-78
2022/01/21 07:05:19;;;;;;;7.67;2.57;;;;;;;;;;4918359;29;20232;-78
2022/01/21 07:07:46;;;;;;;6.63;2.60;;;;;;;;;;4902434;29;20190;-78
2022/01/21 07:10:14;;;;;;;5.33;1.93;;;;;;;;;;4903095;29;20220;-78
2022/01/21 07:12:40;;;;;;;4.93;2.23;;;;;;;;;;4918532;29;20181;-78
2022/01/21 07:15:07;;;;;;;4.17;1.80;;;;;;;;;;4918471;29;20192;-78
2022/01/21 07:17:33;;;;;;;6.83;2.63;;;;;;;;;;4918614;29;20241;-78
2022/01/21 07:20:00;;;;;;;5.07;2.20;;;;;;;;;;4918349;29;20221;-78
2022/01/21 07:22:26;;;;;;;5.60;2.60;;;;;;;;;;4918436;29;20182;-78
2022/01/21 07:24:52;;;;;;;5.97;2.40;;;;;;;;;;4902924;29;20190;-80
2022/01/21 07:27:18;;;;;;;6.50;2.63;;;;;;;;;;4903323;29;20190;-78
2022/01/21 07:29:44;;;;;;;9.33;2.63;;;;;;;;;;4902753;29;20611;-79
2022/01/21 07:32:10;;;;;;;7.73;2.60;;;;;;;;;;4903072;29;20225;-79
2022/01/21 07:34:36;;;;;;;6.73;2.13;;;;;;;;;;4902559;29;20196;-79
2022/01/21 07:37:03;;;;;;;7.57;2.60;;;;;;;;;;4918090;29;20213;-78
2022/01/21 07:39:29;;;;;;;9.97;3.07;;;;;;;;;;4918243;29;20304;-78
2022/01/21 07:41:55;;;;;;;5.43;2.40;;;;;;;;;;4918902;29;20182;-80
2022/01/21 07:44:21;;;;;;;5.07;2.40;;;;;;;;;;4918669;29;20212;-81
2022/01/21 07:46:47;;;;;;;7.37;2.53;;;;;;;;;;4919001;29;20210;-79
2022/01/21 07:49:14;;;;;;;8.17;2.70;;;;;;;;;;4902572;29;20220;-78
2022/01/21 07:51:40;;;;;;;8.87;4.20;;;;;;;;;;4918025;29;20648;-81
2022/01/21 07:54:07;;;;;;;7.13;3.77;;;;;;;;;;4902852;29;20676;-77
2022/01/21 07:56:33;;;;;;;6.80;2.50;;;;;;;;;;4902483;29;20224;-76
2022/01/21 07:59:00;;;;;;;6.13;2.70;;;;;;;;;;4902141;29;20181;-77
2022/01/21 08:01:26;;;;;;;8.30;2.60;;;;;;;;;;4902375;29;20221;-77
2022/01/21 08:03:53;;;;;;;9.17;2.83;;;;;;;;;;4917671;29;20244;-77
2022/01/21 08:06:20;;;;;;;5.33;2.20;;;;;;;;;;4917941;29;20272;-78
2022/01/21 08:08:46;;;;;;;9.17;2.70;;;;;;;;;;4902764;29;20305;-79
2022/01/21 08:11:12;;;;;;;7.10;3.03;;;;;;;;;;4903176;29;20226;-80
2022/01/21 08:13:38;;;;;;;6.10;2.90;;;;;;;;;;4902469;29;20252;-77
2022/01/21 08:16:04;;;;;;;8.57;2.70;;;;;;;;;;4902634;29;20554;-79
2022/01/21 08:18:30;;;;;;;7.63;2.60;;;;;;;;;;4903095;29;20191;-78
2022/01/21 08:20:56;;;;;;;8.30;2.80;;;;;;;;;;4906001;29;20221;-83
2022/01/21 08:23:22;;;;;;;7.07;3.00;;;;;;;;;;4906586;29;20200;-79
2022/01/21 08:25:48;;;;;;;5.73;2.90;;;;;;;;;;4905698;29;20193;-79
2022/01/21 08:28:14;;;;;;;8.00;2.77;;;;;;;;;;4914115;29;20644;-79
2022/01/21 08:30:40;;;;;;;6.97;3.00;;;;;;;;;;4920700;29;20251;-79
2022/01/21 08:33:06;;;;;;;7.23;2.73;;;;;;;;;;4906685;29;20188;-79
2022/01/21 08:35:33;;;;;;;5.73;2.93;;;;;;;;;;4921998;29;20233;-79
2022/01/21 08:37:59;;;;;;;6.20;2.80;;;;;;;;;;4922315;29;20232;-79
2022/01/21 08:40:25;;;;;;;5.40;2.87;;;;;;;;;;4921983;29;20209;-79
2022/01/21 08:42:51;;;;;;;7.17;3.30;;;;;;;;;;4921880;29;20193;-79
2022/01/21 08:45:18;;;;;;;7.47;3.13;;;;;;;;;;4921555;29;20184;-80
2022/01/21 08:47:44;;;;;;;5.43;2.97;;;;;;;;;;4906373;29;20248;-79
2022/01/21 08:50:11;;;;;;;7.97;3.07;;;;;;;;;;4906420;29;20209;-79
2022/01/21 08:52:38;;;;;;;7.97;3.00;;;;;;;;;;4921792;29;20182;-80
2022/01/21 08:55:07;;;;;;;5.97;2.47;;;;;;;;;;4905910;29;20656;-79
2022/01/21 08:57:34;;;;;;;5.13;2.50;;;;;;;;;;4921835;29;20559;-80
2022/01/21 09:00:00;;;;;;;6.67;2.50;;;;;;;;;;4921461;29;20217;-79
2022/01/21 09:02:26;;;;;;;7.33;3.00;;;;;;;;;;4921756;29;20213;-79
2022/01/21 09:04:54;;;;;;;6.63;3.07;;;;;;;;;;4921601;29;20185;-79
2022/01/21 09:07:20;;;;;;;6.10;2.23;;;;;;;;;;4921595;29;20173;-79
2022/01/21 09:09:46;;;;;;;6.67;3.27;;;;;;;;;;4906112;29;20217;-79
2022/01/21 09:12:12;;;;;;;7.63;3.20;;;;;;;;;;4905869;29;20711;-79
2022/01/21 09:14:38;;;;;;;3.63;1.70;;;;;;;;;;4905275;29;20194;-79
2022/01/21 09:17:04;;;;;;;5.23;2.50;;;;;;;;;;4921254;29;20232;-79
2022/01/21 09:19:32;;;;;;;8.93;2.47;;;;;;;;;;4921091;29;20269;-79
2022/01/21 09:22:02;;;;;;;5.13;3.10;;;;;;;;;;4921188;29;20268;-79
2022/01/21 09:24:28;;;;;;;4.90;2.90;;;;;;;;;;4920753;29;20268;-79
2022/01/21 09:26:54;;;;;;;7.03;2.63;;;;;;;;;;4905409;29;20181;-79
2022/01/21 09:29:20;;;;;;;7.47;3.23;;;;;;;;;;4945508;23;20269;-77
2022/01/21 09:31:46;;;;;;;16.00;5.47;;;;;;;;;;4919396;29;20227;-78
2022/01/21 09:34:12;;;;;;;10.17;4.33;;;;;;;;;;4904490;29;20186;-78
2022/01/21 09:36:39;;;;;;;9.87;3.60;;;;;;;;;;4920837;29;20174;-77
2022/01/21 09:39:05;;;;;;;7.10;2.93;;;;;;;;;;4937924;29;20649;-77
2022/01/21 09:41:31;;;;;;;8.17;3.37;;;;;;;;;;4901692;29;20226;-78
2022/01/21 09:43:58;;;;;;;6.03;3.03;;;;;;;;;;4917302;29;20175;-78
2022/01/21 09:46:31;;;;;;;3.73;2.50;;;;;;;;;;4917381;29;20183;-78
2022/01/21 09:49:07;;;;;;;5.57;2.63;;;;;;;;;;4917590;29;20270;-78
2022/01/21 09:51:34;;;;;;;4.73;2.60;;;;;;;;;;4917219;29;20197;-78
2022/01/21 09:54:01;;;;;;;7.17;2.70;;;;;;;;;;4916931;29;20182;-78
2022/01/21 09:56:28;;;;;;;4.83;2.23;;;;;;;;;;4901455;29;20186;-78
2022/01/21 09:58:54;;;;;;;6.43;2.70;;;;;;;;;;4901364;29;20653;-78
2022/01/21 10:01:20;;;;;;;14.20;5.93;;;;;;;;;;4901472;29;20241;-78
2022/01/21 10:03:48;;;;;;;6.93;2.50;;;;;;;;;;4916949;29;20189;-77
2022/01/21 10:06:15;;;;;;;9.53;2.60;;;;;;;;;;4916870;29;20265;-77
2022/01/21 10:08:44;;;;;;;7.37;2.80;;;;;;;;;;4901229;29;20670;-78
2022/01/21 10:11:10;;;;;;;5.93;2.60;;;;;;;;;;4901626;29;20246;-80
2022/01/21 10:13:37;;;;;;;5.53;2.50;;;;;;;;;;4916540;29;20179;-79
2022/01/21 10:16:04;;;;;;;3.00;1.97;;;;;;;;;;4916923;29;20202;-79
2022/01/21 10:18:30;;;;;;;6.47;2.60;;;;;;;;;;4916971;29;20193;-79
2022/01/21 10:21:10;;;;;;;4.07;2.60;;;;;;;;;;4916962;29;20214;-79
2022/01/21 10:23:38;;;;;;;4.30;2.43;;;;;;;;;;4916531;29;20261;-78
2022/01/21 10:26:05;;;;;;;6.40;2.97;;;;;;;;;;4918184;29;20185;-78
2022/01/21 10:28:32;;;;;;;4.87;2.67;;;;;;;;;;4918158;29;20226;-77
2022/01/21 10:31:06;;;;;;;4.77;2.60;;;;;;;;;;4916466;29;20218;-78
2022/01/21 10:33:32;;;;;;;4.87;2.70;;;;;;;;;;4916211;29;20178;-78
2022/01/21 10:36:12;;;;;;;6.00;2.30;;;;;;;;;;4901013;29;20268;-78
2022/01/21 10:38:42;;;;;;;6.47;2.43;;;;;;;;;;4916861;29;20190;-78
2022/01/21 10:41:16;;;;;;;5.47;2.70;;;;;;;;;;4916472;29;20240;-78
2022/01/21 10:43:42;;;;;;;7.90;3.13;;;;;;;;;;4899996;29;20174;-78
2022/01/21 10:46:13;;;;;;;7.53;2.97;;;;;;;;;;4917919;29;20174;-78
2022/01/21 10:48:58;;;;;;;5.23;2.90;;;;;;;;;;4918160;29;20182;-78
2022/01/21 10:51:25;;;;;;;6.23;2.63;;;;;;;;;;4917053;29;20246;-78
2022/01/21 10:53:56;;;;;;;9.03;3.70;;;;;;;;;;4901034;29;20220;-78
2022/01/21 10:56:23;;;;;;;4.57;3.00;;;;;;;;;;4916685;29;20179;-78
2022/01/21 10:58:51;;;;;;;5.53;2.77;;;;;;;;;;4916534;29;20185;-78
2022/01/21 11:01:21;;;;;;;3.93;2.60;;;;;;;;;;4916179;29;20214;-77
2022/01/21 11:04:13;;;;;;;3.50;2.40;;;;;;;;;;4900943;29;20170;-77
2022/01/21 11:06:52;;;;;;;7.67;2.40;;;;;;;;;;4897884;29;20573;-77
2022/01/21 11:09:20;;;;;;;4.70;2.60;;;;;;;;;;4915524;29;20264;-78
2022/01/21 11:11:47;;;;;;;6.00;3.07;;;;;;;;;;4900779;29;20572;-78
2022/01/21 11:14:15;;;;;;;6.90;2.90;;;;;;;;;;4915669;29;20182;-78
2022/01/21 11:16:46;;;;;;;8.73;3.30;;;;;;;;;;4917204;29;20225;-78
2022/01/21 11:19:13;;;;;;;5.23;3.07;;;;;;;;;;4915922;29;20186;-78
2022/01/21 11:21:39;;;;;;;5.97;3.23;;;;;;;;;;4900908;29;20545;-78
2022/01/21 11:24:06;;;;;;;3.60;2.90;;;;;;;;;;4915603;29;20185;-77
2022/01/21 11:26:33;;;;;;;6.30;2.83;;;;;;;;;;4899630;29;20185;-76
2022/01/21 11:28:59;;;;;;;5.23;3.30;;;;;;;;;;4915300;29;20178;-77
2022/01/21 11:31:27;;;;;;;7.63;3.30;;;;;;;;;;4915048;29;20213;-76
2022/01/21 11:33:53;;;;;;;5.33;3.07;;;;;;;;;;4914867;29;20179;-76
2022/01/21 11:36:20;;;;;;;4.53;2.67;;;;;;;;;;4915357;29;20664;-76
2022/01/21 11:38:48;;;;;;;6.33;2.90;;;;;;;;;;4899296;29;20649;-76
2022/01/21 11:41:14;;;;;;;6.93;3.30;;;;;;;;;;4914892;29;20262;-77
2022/01/21 11:43:49;;;;;;;5.10;3.13;;;;;;;;;;4899408;29;20187;-76
2022/01/21 11:46:19;;;;;;;6.53;3.00;;;;;;;;;;4900600;29;20185;-77
2022/01/21 11:48:50;;;;;;;4.87;2.73;;;;;;;;;;4899653;29;20218;-76
2022/01/21 11:51:30;;;;;;;5.00;3.20;;;;;;;;;;4914932;29;20297;-77
2022/01/21 11:53:57;;;;;;;9.23;3.67;;;;;;;;;;4914609;29;20739;-76
2022/01/21 11:56:34;;;;;;;5.17;3.37;;;;;;;;;;4899280;29;20190;-77
2022/01/21 11:59:13;;;;;;;8.90;3.07;;;;;;;;;;4915980;29;20175;-76
2022/01/21 12:01:47;;;;;;;6.07;3.33;;;;;;;;;;4899270;29;20554;-77
2022/01/21 12:04:14;;;;;;;4.80;3.20;;;;;;;;;;4899467;29;20188;-77
2022/01/21 12:06:40;;;;;;;4.77;2.63;;;;;;;;;;4916113;29;20181;-77
2022/01/21 12:09:09;;;;;;;4.17;2.90;;;;;;;;;;4899214;29;20240;-77
2022/01/21 12:11:37;;;;;;;4.20;2.40;;;;;;;;;;4914543;29;20194;-76
2022/01/21 12:14:26;;;;;;;5.73;2.93;;;;;;;;;;4914665;29;20182;-76
2022/01/21 12:16:57;;;;;;;4.33;2.60;;;;;;;;;;4889899;29;20197;-77
2022/01/21 12:19:32;;;;;;;7.33;2.90;;;;;;;;;;4914860;29;20296;-76
2022/01/21 12:22:10;;;;;;;4.00;2.80;;;;;;;;;;4914512;29;20180;-76
2022/01/21 12:25:06;;;;;;;6.80;2.90;;;;;;;;;;4915645;29;20177;-76
2022/01/21 12:27:32;;;;;;;6.27;3.03;;;;;;;;;;4904067;29;20187;-76
2022/01/21 12:30:17;;;;;;;5.67;2.80;;;;;;;;;;4914450;29;20250;-76
2022/01/21 12:32:50;;;;;;;5.03;2.30;;;;;;;;;;4914860;29;20179;-76
2022/01/21 12:35:17;;;;;;;5.33;3.00;;;;;;;;;;4898725;29;20193;-75
2022/01/21 12:39:05;;;;;;;5.43;2.70;;;;;;;;;;4899185;29;20182;-77
2022/01/21 12:40:48;;;;;;;5.70;3.10;;;;;;;;;;4915195;29;20226;-76
2022/01/21 12:43:33;;;;;;;6.40;2.87;;;;;;;;;;4898875;29;20190;-76
2022/01/21 12:46:07;;;;;;;5.80;2.97;;;;;;;;;;4914570;29;20258;-76
2022/01/21 12:48:35;;;;;;;6.07;2.87;;;;;;;;;;4915583;29;20654;-77
2022/01/21 12:56:44;;;;;;;6.30;2.50;;;;;;;;;;4915509;29;20178;-77
2022/01/21 12:59:21;;;;;;;4.77;2.50;;;;;;;;;;4898427;29;20274;-77
2022/01/21 13:01:47;;;;;;;7.93;2.87;;;;;;;;;;4914065;29;20676;-77
2022/01/21 13:04:17;;;;;;;5.20;2.77;;;;;;;;;;4898714;29;20190;-77
2022/01/21 13:06:52;;;;;;;6.30;2.73;;;;;;;;;;4916875;29;20182;-76
2022/01/21 13:09:21;;;;;;;6.63;2.73;;;;;;;;;;4918947;29;20548;-78
2022/01/21 13:11:59;;;;;;;7.13;2.87;;;;;;;;;;4918976;29;20198;-78
2022/01/21 13:17:02;;;;;;;4.30;3.10;;;;;;;;;;4903249;29;20181;-78
2022/01/21 13:19:29;;;;;;;5.10;2.97;;;;;;;;;;4901915;29;20211;-78
2022/01/21 13:21:55;;;;;;;6.90;3.10;;;;;;;;;;4917686;29;20178;-78
2022/01/21 13:24:25;;;;;;;5.73;3.20;;;;;;;;;;4917599;29;20206;-78
2022/01/21 13:26:52;;;;;;;6.70;3.53;;;;;;;;;;4917608;29;20598;-78
2022/01/21 13:29:19;;;;;;;6.40;2.90;;;;;;;;;;4902174;29;20182;-78
2022/01/21 13:31:48;;;;;;;4.07;2.87;;;;;;;;;;4902214;29;20190;-78
2022/01/21 13:34:16;;;;;;;3.60;2.50;;;;;;;;;;4917501;29;20598;-78
2022/01/21 13:36:45;;;;;;;4.33;2.93;;;;;;;;;;4918788;29;20171;-78
2022/01/21 13:39:17;;;;;;;4.33;2.53;;;;;;;;;;4917367;29;20266;-78
2022/01/21 13:42:06;;;;;;;4.23;3.00;;;;;;;;;;4917729;29;20179;-78
2022/01/21 13:44:42;;;;;;;3.87;2.57;;;;;;;;;;4917186;29;20235;-78
2022/01/21 13:47:23;;;;;;;5.33;2.73;;;;;;;;;;4902035;29;20638;-78
2022/01/21 13:49:49;;;;;;;4.60;3.07;;;;;;;;;;4917486;29;20207;-78
2022/01/21 13:52:15;;;;;;;6.40;2.90;;;;;;;;;;4917126;29;20247;-78
2022/01/21 13:54:45;;;;;;;6.67;3.10;;;;;;;;;;4901310;29;20710;-78
2022/01/21 13:57:11;;;;;;;5.63;2.90;;;;;;;;;;4901868;29;20186;-78
2022/01/21 13:59:42;;;;;;;4.30;2.70;;;;;;;;;;4916850;29;20608;-78
2022/01/21 14:02:12;;;;;;;3.20;2.30;;;;;;;;;;4916966;29;20186;-78
2022/01/21 14:04:39;;;;;;;3.83;2.43;;;;;;;;;;4916907;29;20179;-78
2022/01/21 14:07:20;;;;;;;4.40;2.33;;;;;;;;;;4917177;29;20675;-78
2022/01/21 14:09:46;;;;;;;7.00;2.20;;;;;;;;;;4916942;29;20207;-78
2022/01/21 14:12:12;;;;;;;5.87;2.80;;;;;;;;;;4901149;29;20278;-78
2022/01/21 14:14:39;;;;;;;4.60;2.47;;;;;;;;;;4916700;29;20192;-78
2022/01/21 14:17:05;;;;;;;4.20;2.80;;;;;;;;;;4916621;29;20184;-78
2022/01/21 14:19:31;;;;;;;4.13;2.47;;;;;;;;;;4916600;29;20204;-78
2022/01/21 14:22:05;;;;;;;5.03;2.13;;;;;;;;;;4917835;29;20181;-79
2022/01/21 14:24:39;;;;;;;5.43;2.30;;;;;;;;;;4901636;29;20272;-79
2022/01/21 14:27:05;;;;;;;4.83;2.27;;;;;;;;;;4917041;29;20192;-79
2022/01/21 14:29:32;;;;;;;6.63;2.77;;;;;;;;;;4901270;29;20185;-79
2022/01/21 14:32:02;;;;;;;4.97;2.30;;;;;;;;;;4918635;29;20558;-79
2022/01/21 14:34:29;;;;;;;5.10;2.67;;;;;;;;;;4914893;29;20183;-79
2022/01/21 14:37:07;;;;;;;5.27;2.57;;;;;;;;;;4891914;29;20585;-79
2022/01/21 14:39:54;;;;;;;4.73;2.23;;;;;;;;;;4882888;29;20236;-80
2022/01/21 14:42:24;;;;;;;6.53;2.63;;;;;;;;;;4894374;29;20188;-80
2022/01/21 14:44:51;;;;;;;5.40;3.10;;;;;;;;;;4917105;29;20186;-80
2022/01/21 14:47:18;;;;;;;7.30;3.33;;;;;;;;;;4916706;29;20242;-80
2022/01/21 14:50:07;;;;;;;6.30;3.33;;;;;;;;;;4916786;29;20210;-80
2022/01/21 14:52:40;;;;;;;5.07;2.47;;;;;;;;;;4900769;29;20186;-80
2022/01/21 14:55:28;;;;;;;5.27;2.77;;;;;;;;;;4917219;29;20179;-80
2022/01/21 14:58:02;;;;;;;4.40;2.50;;;;;;;;;;4900626;29;20212;-79
2022/01/21 15:00:30;;;;;;;5.07;2.60;;;;;;;;;;4900243;29;20217;-79
2022/01/21 15:03:08;;;;;;;7.97;2.43;;;;;;;;;;4916330;29;20176;-79
2022/01/21 15:05:35;;;;;;;5.53;2.50;;;;;;;;;;4915863;29;20175;-80
2022/01/21 15:08:02;;;;;;;9.00;2.50;;;;;;;;;;4900599;29;20185;-79
2022/01/21 15:10:43;;;;;;;5.07;2.40;;;;;;;;;;4900551;29;20262;-80
2022/01/21 15:16:12;;;;;;;7.77;3.17;;;;;;;;;;4917899;29;20194;-79
2022/01/21 15:18:39;;;;;;;8.07;2.97;;;;;;;;;;4916645;29;20184;-80
2022/01/21 15:21:13;;;;;;;6.80;2.80;;;;;;;;;;4916278;29;20217;-79
2022/01/21 15:23:39;;;;;;;4.87;3.10;;;;;;;;;;4916142;29;20212;-80
2022/01/21 15:26:05;;;;;;;6.20;3.70;;;;;;;;;;4903066;29;20179;-80
2022/01/21 15:28:31;;;;;;;9.03;3.90;;;;;;;;;;4911780;29;20182;-79
2022/01/21 15:30:57;;;;;;;5.77;4.17;;;;;;;;;;4943495;23;20237;-78
2022/01/21 15:33:23;;;;;;;5.20;3.17;;;;;;;;;;4921326;29;20187;-78
2022/01/21 15:35:49;;;;;;;7.80;3.93;;;;;;;;;;4937541;29;20531;-77
2022/01/21 15:38:15;;;;;;;8.23;3.90;;;;;;;;;;4937835;29;20256;-77
2022/01/21 15:40:41;;;;;;;8.70;3.63;;;;;;;;;;4928630;29;20221;-77
2022/01/21 15:43:07;;;;;;;5.37;3.67;;;;;;;;;;4902620;29;20186;-77
2022/01/21 15:45:33;;;;;;;7.10;3.30;;;;;;;;;;4918320;29;20184;-77
2022/01/21 15:47:59;;;;;;;6.00;4.03;;;;;;;;;;4902464;29;20189;-77